Alkor — DBND — position and weather

sailwx.info

Track history (hours):
 
Tides and Currents Weather Stations Pressure Air Temp Water Temp Dewpoint Dewpoint Depression Visibility Wind Speed Wind Dir Waves Ship Positions

Oceanographic research ship Alkor (Germany)

Ship's website: http://www.briese.de/

Detailed information on ship capabilities available from University of Delaware's Ocean Information Center.

Last reported at 2017-Oct-17 07:10 UTC. Time now 2017-Oct-19 02:11 UTC.
Position N 54°26' E 010°11'.

Length 55 m; draft 4.2 m.

Type: Ship. MMSI: 211216512.

Date/timePositionNaut miles runAvg speedWind from/ knotsBaromVisibWave heightAir tempDewpointWater temp
2017-Oct-17 07:10N 54°26' E 010°11'0 1.6
2017-Oct-17 07:00N 54°26' E 010°11'4 7.0
2017-Oct-17 06:29N 54°22' E 010°11'3 2.9
2017-Oct-17 05:34N 54°20' E 010°10'0 0.9
2017-Oct-17 05:12N 54°20' E 010°09'0 0.0
2017-Oct-17 05:00N 54°20' E 010°09'0 0.0
2017-Oct-17 04:30N 54°20' E 010°09'0 0.0
2017-Oct-17 04:00N 54°20' E 010°09'0 0.0
2017-Oct-16 23:09N 54°20' E 010°09'0 0.0
2017-Oct-16 04:36N 54°20' E 010°09'0 0.0
2017-Oct-16 04:27N 54°20' E 010°09'0 0.0
2017-Oct-16 03:51N 54°20' E 010°09'0 0.0
2017-Oct-15 21:36N 54°20' E 010°09'0 0.0
2017-Oct-15 21:27N 54°20' E 010°09'0 0.0
2017-Oct-15 16:18N 54°20' E 010°09'  
2017-Oct-13 06:24N 54°20' E 010°10'13 7.4
2017-Oct-13 04:41N 54°29' E 010°26'1 7.1
2017-Oct-13 04:29N 54°29' E 010°28'3 6.9
2017-Oct-13 04:00N 54°30' E 010°34'3 6.2
2017-Oct-13 03:30N 54°31' E 010°39'3 4.8
2017-Oct-13 02:48N 54°31' E 010°45'1 4.4
2017-Oct-13 02:30N 54°32' E 010°47'2 4.7
2017-Oct-13 02:00N 54°32' E 010°51'3 5.5
2017-Oct-13 01:30N 54°33' E 010°55'4 8.0
2017-Oct-13 01:00N 54°34' E 011°02'5 9.5
2017-Oct-13 00:30N 54°33' E 011°10'5 9.2
2017-Oct-13 00:00N 54°31' E 011°17'510.4
2017-Oct-12 23:30N 54°26' E 011°21'511.0
2017-Oct-12 23:00N 54°21' E 011°19'711.9
2017-Oct-12 22:23N 54°14' E 011°14'4 3.2
2017-Oct-12 21:09N 54°10' E 011°12'6 1.8
2017-Oct-12 17:40N 54°05' E 011°15'1 5.0
2017-Oct-12 17:30N 54°04' E 011°16'1 2.8
2017-Oct-12 17:00N 54°03' E 011°16'3 5.2
2017-Oct-12 16:30N 54°02' E 011°12'2 0.2
2017-Oct-12 05:58N 54°02' E 011°09'2 5.0
2017-Oct-12 05:30N 54°02' E 011°12'1 2.9
2017-Oct-12 05:00N 54°03' E 011°15'3 5.2
2017-Oct-12 04:30N 54°05' E 011°14'3 5.2
2017-Oct-12 04:00N 54°08' E 011°13'3 5.1
2017-Oct-12 03:30N 54°10' E 011°12'10 4.9
2017-Oct-12 01:34N 54°19' E 011°07'3 4.9
2017-Oct-12 00:54N 54°21' E 011°12'2 4.9
2017-Oct-12 00:30N 54°22' E 011°15'2 4.9
2017-Oct-12 00:00N 54°23' E 011°19'2 4.3
2017-Oct-11 23:30N 54°21' E 011°21'3 4.8
2017-Oct-11 22:55N 54°18' E 011°22'1 3.2
2017-Oct-11 22:30N 54°19' E 011°23'5 9.7
2017-Oct-11 22:00N 54°22' E 011°29'5 9.3
2017-Oct-11 21:30N 54°25' E 011°35'4 8.6
2017-Oct-11 21:00N 54°27' E 011°42'14 9.7
2017-Oct-11 19:32N 54°26' E 012°06'0 8.6
2017-Oct-11 19:30N 54°26' E 012°07'4 8.1
2017-Oct-11 19:00N 54°29' E 012°11'5 9.7
2017-Oct-11 18:30N 54°34' E 012°15'4 8.7
2017-Oct-11 18:00N 54°37' E 012°19'5 9.1
2017-Oct-11 17:30N 54°40' E 012°25'43 1.5
2017-Oct-10 12:24N 54°45' E 013°38'511.4
2017-Oct-10 11:59N 54°43' E 013°46'711.2
2017-Oct-10 11:23N 54°41' E 013°56'411.3
2017-Oct-10 11:00N 54°39' E 014°03'  
Track history (hours):
 
Tides and Currents Weather Stations Pressure Air Temp Water Temp Dewpoint Dewpoint Depression Visibility Wind Speed Wind Dir Waves Ship Positions

Oceanographic research ship Alkor (Germany)

Ship's website: http://www.briese.de/

Detailed information on ship capabilities available from University of Delaware's Ocean Information Center.

Last reported at 2017-Oct-17 07:10 UTC. Time now 2017-Oct-19 02:11 UTC.
Position N 54°26' E 010°11'.

Length 55 m; draft 4.2 m.

Type: Ship. MMSI: 211216512.

Date/timePositionNaut miles runAvg speedWind from/ knotsBaromVisibWave heightAir tempDewpointWater temp
2017-Oct-17 07:10N 54°26' E 010°11'0 1.6
2017-Oct-17 07:00N 54°26' E 010°11'4 7.0
2017-Oct-17 06:29N 54°22' E 010°11'3 2.9
2017-Oct-17 05:34N 54°20' E 010°10'0 0.9
2017-Oct-17 05:12N 54°20' E 010°09'0 0.0
2017-Oct-17 05:00N 54°20' E 010°09'0 0.0
2017-Oct-17 04:30N 54°20' E 010°09'0 0.0
2017-Oct-17 04:00N 54°20' E 010°09'0 0.0
2017-Oct-16 23:09N 54°20' E 010°09'0 0.0
2017-Oct-16 04:36N 54°20' E 010°09'0 0.0
2017-Oct-16 04:27N 54°20' E 010°09'0 0.0
2017-Oct-16 03:51N 54°20' E 010°09'0 0.0
2017-Oct-15 21:36N 54°20' E 010°09'0 0.0
2017-Oct-15 21:27N 54°20' E 010°09'0 0.0
2017-Oct-15 16:18N 54°20' E 010°09'  
2017-Oct-13 06:24N 54°20' E 010°10'13 7.4
2017-Oct-13 04:41N 54°29' E 010°26'1 7.1
2017-Oct-13 04:29N 54°29' E 010°28'3 6.9
2017-Oct-13 04:00N 54°30' E 010°34'3 6.2
2017-Oct-13 03:30N 54°31' E 010°39'3 4.8
2017-Oct-13 02:48N 54°31' E 010°45'1 4.4
2017-Oct-13 02:30N 54°32' E 010°47'2 4.7
2017-Oct-13 02:00N 54°32' E 010°51'3 5.5
2017-Oct-13 01:30N 54°33' E 010°55'4 8.0
2017-Oct-13 01:00N 54°34' E 011°02'5 9.5
2017-Oct-13 00:30N 54°33' E 011°10'5 9.2
2017-Oct-13 00:00N 54°31' E 011°17'510.4
2017-Oct-12 23:30N 54°26' E 011°21'511.0
2017-Oct-12 23:00N 54°21' E 011°19'711.9
2017-Oct-12 22:23N 54°14' E 011°14'4 3.2
2017-Oct-12 21:09N 54°10' E 011°12'6 1.8
2017-Oct-12 17:40N 54°05' E 011°15'1 5.0
2017-Oct-12 17:30N 54°04' E 011°16'1 2.8
2017-Oct-12 17:00N 54°03' E 011°16'3 5.2
2017-Oct-12 16:30N 54°02' E 011°12'2 0.2
2017-Oct-12 05:58N 54°02' E 011°09'2 5.0
2017-Oct-12 05:30N 54°02' E 011°12'1 2.9
2017-Oct-12 05:00N 54°03' E 011°15'3 5.2
2017-Oct-12 04:30N 54°05' E 011°14'3 5.2
2017-Oct-12 04:00N 54°08' E 011°13'3 5.1
2017-Oct-12 03:30N 54°10' E 011°12'10 4.9
2017-Oct-12 01:34N 54°19' E 011°07'3 4.9
2017-Oct-12 00:54N 54°21' E 011°12'2 4.9
2017-Oct-12 00:30N 54°22' E 011°15'2 4.9
2017-Oct-12 00:00N 54°23' E 011°19'2 4.3
2017-Oct-11 23:30N 54°21' E 011°21'3 4.8
2017-Oct-11 22:55N 54°18' E 011°22'1 3.2
2017-Oct-11 22:30N 54°19' E 011°23'5 9.7
2017-Oct-11 22:00N 54°22' E 011°29'5 9.3
2017-Oct-11 21:30N 54°25' E 011°35'4 8.6
2017-Oct-11 21:00N 54°27' E 011°42'14 9.7
2017-Oct-11 19:32N 54°26' E 012°06'0 8.6
2017-Oct-11 19:30N 54°26' E 012°07'4 8.1
2017-Oct-11 19:00N 54°29' E 012°11'5 9.7
2017-Oct-11 18:30N 54°34' E 012°15'4 8.7
2017-Oct-11 18:00N 54°37' E 012°19'5 9.1
2017-Oct-11 17:30N 54°40' E 012°25'43 1.5
2017-Oct-10 12:24N 54°45' E 013°38'511.4
2017-Oct-10 11:59N 54°43' E 013°46'711.2
2017-Oct-10 11:23N 54°41' E 013°56'411.3
2017-Oct-10 11:00N 54°39' E 014°03'  

Dump ship's entire track history